Time;durP1;ratioP1;P1;durP2;ratioP2;P2;SDS_P1;SDS_P2;PMS_P1;PMS_P2;Temp;Humidity;BMP_temperature;BMP_pressure;BME280_temperature;BME280_humidity;BME280_pressure;Samples;Min_cycle;Max_cycle;Signal;HPM_P1;HPM_P2
2023/05/02 00:01:21;;;;;;;8.83;6.23;;;15.10;52.60;;;;;;5019440;28;20876;-85
2023/05/02 00:03:48;;;;;;;7.20;5.40;;;15.20;52.50;;;;;;5026750;28;20489;-83
2023/05/02 00:06:15;;;;;;;8.53;5.97;;;15.20;52.20;;;;;;5034024;28;20476;-84
2023/05/02 00:08:42;;;;;;;10.30;5.93;;;15.10;52.00;;;;;;5028834;28;20456;-83
2023/05/02 00:11:09;;;;;;;6.67;5.77;;;14.70;52.30;;;;;;5006333;28;20481;-85
2023/05/02 00:13:36;;;;;;;6.63;5.37;;;14.50;53.10;;;;;;5021766;28;20489;-83
2023/05/02 00:16:04;;;;;;;7.60;6.33;;;14.40;53.50;;;;;;5031153;28;20496;-85
2023/05/02 00:18:32;;;;;;;6.50;5.47;;;14.50;53.20;;;;;;5054758;28;20800;-83
2023/05/02 00:20:59;;;;;;;6.37;5.63;;;14.60;53.30;;;;;;5034220;28;20540;-85
2023/05/02 00:23:26;;;;;;;7.30;6.27;;;14.70;53.20;;;;;;5015938;28;20442;-84
2023/05/02 00:25:53;;;;;;;8.67;6.70;;;14.90;53.00;;;;;;5037670;28;20854;-86
2023/05/02 00:28:20;;;;;;;7.30;5.73;;;14.80;53.10;;;;;;5019439;28;20448;-83
2023/05/02 00:30:47;;;;;;;9.33;6.53;;;14.80;53.40;;;;;;5039332;28;20545;-84
2023/05/02 00:33:14;;;;;;;10.53;7.60;;;14.80;53.20;;;;;;5013511;28;20531;-84
2023/05/02 00:35:43;;;;;;;6.83;6.13;;;14.90;53.10;;;;;;5039352;28;20512;-85
2023/05/02 00:38:10;;;;;;;8.10;5.43;;;14.90;53.10;;;;;;5013449;28;20527;-84
2023/05/02 00:40:48;;;;;;;10.40;5.77;;;15.00;53.20;;;;;;5039744;28;20503;-83
2023/05/02 00:43:15;;;;;;;9.63;6.97;;;15.00;53.00;;;;;;5022791;28;20627;-84
2023/05/02 00:45:44;;;;;;;7.10;6.40;;;14.90;53.60;;;;;;5031212;28;20562;-83
2023/05/02 00:48:11;;;;;;;9.07;5.77;;;14.90;53.70;;;;;;5027075;28;20469;-84
2023/05/02 00:50:40;;;;;;;10.67;6.47;;;14.90;54.10;;;;;;5031823;28;20449;-84
2023/05/02 00:53:10;;;;;;;9.40;7.30;;;14.90;53.90;;;;;;5029332;28;20444;-83
2023/05/02 00:55:37;;;;;;;7.60;6.70;;;15.00;53.70;;;;;;5018770;28;20508;-85
2023/05/02 00:58:08;;;;;;;8.47;6.13;;;15.00;53.70;;;;;;5028088;28;20448;-84
2023/05/02 01:00:49;;;;;;;8.10;6.43;;;15.00;54.10;;;;;;5041885;28;20533;-85
2023/05/02 01:03:30;;;;;;;10.57;7.17;;;14.90;54.60;;;;;;5033899;28;20952;-84
2023/05/02 01:06:07;;;;;;;8.27;6.73;;;14.90;54.10;;;;;;5037795;28;21054;-85
2023/05/02 01:08:43;;;;;;;8.37;6.87;;;14.90;54.90;;;;;;5046281;28;20457;-84
2023/05/02 01:11:16;;;;;;;8.37;6.67;;;14.90;55.00;;;;;;5022200;28;20470;-84
2023/05/02 01:13:44;;;;;;;9.83;7.20;;;14.90;55.00;;;;;;5025175;28;20496;-84
2023/05/02 01:16:14;;;;;;;8.80;6.93;;;14.80;55.70;;;;;;5032793;28;20476;-85
2023/05/02 01:18:42;;;;;;;6.67;5.97;;;14.80;55.50;;;;;;5021002;28;20948;-85
2023/05/02 01:21:11;;;;;;;7.70;6.90;;;14.90;54.80;;;;;;5027532;28;20469;-84
2023/05/02 01:23:46;;;;;;;7.63;6.83;;;14.90;54.60;;;;;;5060258;28;20543;-84
2023/05/02 01:26:20;;;;;;;10.00;7.00;;;14.90;54.40;;;;;;5022602;28;20502;-84
2023/05/02 01:29:00;;;;;;;8.30;6.70;;;14.80;54.70;;;;;;5022337;28;20532;-85
2023/05/02 01:31:29;;;;;;;10.70;7.10;;;14.90;55.00;;;;;;5027321;28;20516;-84
2023/05/02 01:33:57;;;;;;;17.73;6.97;;;15.00;55.00;;;;;;5036869;28;20478;-85
2023/05/02 01:36:29;;;;;;;9.90;7.17;;;14.90;55.10;;;;;;5029085;28;20953;-84
2023/05/02 01:38:57;;;;;;;10.90;6.30;;;15.00;55.10;;;;;;5019143;28;20445;-84
2023/05/02 01:41:26;;;;;;;8.00;6.63;;;15.10;54.80;;;;;;5027065;28;20513;-83
2023/05/02 01:43:54;;;;;;;8.40;6.63;;;15.00;55.70;;;;;;5008235;28;20543;-85
2023/05/02 01:46:25;;;;;;;9.37;6.40;;;15.00;55.80;;;;;;5037572;28;20488;-82
2023/05/02 01:48:53;;;;;;;8.87;6.30;;;14.70;56.60;;;;;;5034620;28;20441;-84
2023/05/02 01:51:21;;;;;;;11.37;6.80;;;14.70;56.80;;;;;;5028749;28;20456;-84
2023/05/02 01:53:49;;;;;;;9.80;6.50;;;14.80;56.40;;;;;;5026534;28;20928;-85
2023/05/02 01:56:19;;;;;;;7.77;6.83;;;14.80;55.90;;;;;;5012921;28;20481;-83
2023/05/02 01:58:48;;;;;;;14.23;7.43;;;14.90;55.40;;;;;;5030230;28;20485;-82
2023/05/02 02:01:17;;;;;;;7.60;6.83;;;14.90;55.50;;;;;;5012170;28;20954;-84
2023/05/02 02:03:47;;;;;;;7.70;6.20;;;15.00;55.40;;;;;;5012904;28;20828;-82
2023/05/02 02:06:15;;;;;;;8.27;6.77;;;15.00;55.10;;;;;;5036841;28;20468;-83
2023/05/02 02:08:43;;;;;;;9.60;6.60;;;15.00;55.20;;;;;;5035484;28;21007;-84
2023/05/02 02:11:12;;;;;;;8.60;6.43;;;15.10;55.00;;;;;;5021939;28;20554;-84
2023/05/02 02:13:45;;;;;;;9.93;7.00;;;15.10;55.10;;;;;;5037285;28;20496;-82
2023/05/02 02:16:19;;;;;;;7.33;6.53;;;15.10;55.10;;;;;;5004672;28;20536;-86
2023/05/02 02:18:47;;;;;;;8.40;7.00;;;15.10;55.10;;;;;;5043840;28;20453;-82
2023/05/02 02:21:18;;;;;;;8.90;7.20;;;15.00;55.30;;;;;;5024232;28;20558;-85
2023/05/02 02:23:48;;;;;;;8.90;6.37;;;15.00;55.50;;;;;;5022464;28;20878;-85
2023/05/02 02:26:19;;;;;;;8.23;6.60;;;15.10;55.60;;;;;;5024178;28;20546;-83
2023/05/02 02:28:46;;;;;;;9.10;6.80;;;14.90;55.80;;;;;;5012703;28;21057;-83
2023/05/02 02:31:14;;;;;;;8.10;7.10;;;14.80;56.20;;;;;;5012983;28;21016;-84
2023/05/02 02:33:41;;;;;;;9.83;7.17;;;14.70;56.10;;;;;;5026906;28;20475;-83
2023/05/02 02:36:15;;;;;;;12.10;6.67;;;14.70;56.20;;;;;;5042339;28;20464;-85
2023/05/02 02:38:50;;;;;;;9.23;7.00;;;14.80;56.10;;;;;;5022103;28;20910;-84
2023/05/02 02:41:26;;;;;;;7.40;6.50;;;14.80;56.30;;;;;;5020577;28;20452;-84
2023/05/02 02:44:01;;;;;;;9.47;7.33;;;14.80;56.30;;;;;;5038734;28;20479;-84
2023/05/02 02:46:39;;;;;;;10.23;7.23;;;14.90;56.10;;;;;;5004670;28;20465;-84
2023/05/02 02:49:25;;;;;;;9.80;7.40;;;14.90;55.90;;;;;;5029824;28;20448;-84
2023/05/02 02:52:02;;;;;;;8.10;6.00;;;14.90;56.20;;;;;;5022825;28;20531;-85
2023/05/02 02:54:35;;;;;;;8.20;6.67;;;15.00;56.10;;;;;;5033715;28;21020;-85
2023/05/02 02:57:07;;;;;;;8.03;7.20;;;15.00;56.00;;;;;;5037438;28;20682;-84
2023/05/02 02:59:40;;;;;;;7.60;6.30;;;15.00;56.10;;;;;;5005633;28;20532;-83
2023/05/02 03:02:08;;;;;;;8.43;7.17;;;15.10;56.20;;;;;;5017576;28;20469;-85
2023/05/02 03:04:40;;;;;;;7.90;6.27;;;15.10;55.80;;;;;;5031948;28;20518;-84
2023/05/02 03:07:09;;;;;;;8.40;6.80;;;15.10;56.10;;;;;;5016681;28;20471;-83
2023/05/02 03:09:44;;;;;;;8.50;6.93;;;15.10;56.20;;;;;;5008387;28;20540;-85
2023/05/02 03:12:15;;;;;;;7.30;6.47;;;15.20;56.50;;;;;;5008387;28;20567;-85
2023/05/02 03:14:43;;;;;;;11.10;6.23;;;15.20;56.60;;;;;;5006610;28;20453;-83
2023/05/02 03:17:10;;;;;;;10.43;7.50;;;15.20;56.50;;;;;;4999779;28;20828;-85
2023/05/02 03:19:37;;;;;;;10.00;6.90;;;15.10;56.60;;;;;;5014195;28;20457;-84
2023/05/02 03:22:06;;;;;;;10.83;7.10;;;15.20;56.90;;;;;;5006989;28;20465;-83
2023/05/02 03:24:36;;;;;;;10.67;7.00;;;15.20;56.80;;;;;;5011695;28;21097;-84
2023/05/02 03:27:04;;;;;;;10.70;6.70;;;15.10;57.10;;;;;;4999217;28;20495;-84
2023/05/02 03:29:37;;;;;;;10.37;7.57;;;15.10;57.30;;;;;;5026392;28;20450;-85
2023/05/02 03:32:04;;;;;;;8.43;7.20;;;15.10;57.20;;;;;;5023671;28;20470;-85
2023/05/02 03:34:32;;;;;;;9.17;7.27;;;15.20;56.90;;;;;;5002628;28;20442;-85
2023/05/02 03:36:59;;;;;;;10.47;8.07;;;15.20;57.10;;;;;;5009263;28;20470;-85
2023/05/02 03:39:26;;;;;;;7.70;6.60;;;15.20;56.50;;;;;;5017837;28;20444;-84
2023/05/02 03:41:54;;;;;;;9.47;7.27;;;15.10;57.10;;;;;;5026850;28;20870;-84
2023/05/02 03:44:24;;;;;;;8.77;7.47;;;14.90;57.50;;;;;;5000692;28;20527;-81
2023/05/02 03:46:51;;;;;;;7.60;6.80;;;14.80;57.80;;;;;;5035543;28;21058;-84
2023/05/02 03:49:18;;;;;;;8.50;7.10;;;15.00;57.70;;;;;;5002340;28;20536;-84
2023/05/02 03:51:47;;;;;;;9.23;6.67;;;15.00;57.50;;;;;;5018871;28;20457;-85
2023/05/02 03:54:18;;;;;;;7.43;6.60;;;15.10;57.40;;;;;;5005291;28;20880;-86
2023/05/02 03:56:46;;;;;;;9.30;7.07;;;15.00;57.50;;;;;;5020176;28;20468;-85
2023/05/02 03:59:22;;;;;;;10.13;7.07;;;15.10;57.70;;;;;;5037013;28;20453;-85
2023/05/02 04:01:50;;;;;;;7.73;6.73;;;15.10;57.60;;;;;;5018009;28;20462;-85
2023/05/02 04:04:18;;;;;;;11.30;6.90;;;15.10;57.50;;;;;;5009402;28;20464;-85
2023/05/02 04:06:50;;;;;;;8.60;6.80;;;15.10;57.80;;;;;;4998188;28;21009;-84
2023/05/02 04:09:17;;;;;;;7.53;6.80;;;15.10;57.40;;;;;;5005436;28;20473;-84
2023/05/02 04:11:53;;;;;;;10.47;6.83;;;15.10;57.30;;;;;;5041463;28;20557;-84
2023/05/02 04:14:22;;;;;;;9.00;7.30;;;15.20;57.10;;;;;;5016690;28;20849;-85
2023/05/02 04:16:51;;;;;;;8.73;6.37;;;15.20;56.90;;;;;;5010654;28;20457;-83
2023/05/02 04:19:26;;;;;;;9.00;7.87;;;15.30;56.90;;;;;;5009518;28;21119;-85
2023/05/02 04:21:53;;;;;;;9.37;7.80;;;15.20;57.00;;;;;;5020332;28;20525;-85
2023/05/02 04:24:20;;;;;;;101.07;51.37;;;15.10;57.30;;;;;;5018847;28;20465;-85
2023/05/02 04:26:47;;;;;;;74.80;46.93;;;15.10;57.20;;;;;;5020487;28;20522;-84
2023/05/02 04:29:15;;;;;;;95.10;61.20;;;15.10;57.30;;;;;;4997315;28;20464;-83
2023/05/02 04:31:44;;;;;;;59.03;40.93;;;15.20;57.00;;;;;;5039726;28;20737;-84
2023/05/02 04:34:12;;;;;;;37.60;26.33;;;15.20;57.10;;;;;;5021598;28;20522;-84
2023/05/02 04:36:45;;;;;;;44.10;30.03;;;15.20;57.20;;;;;;5023477;28;20473;-85
2023/05/02 04:39:15;;;;;;;31.00;23.57;;;15.20;56.80;;;;;;5019533;28;20442;-84
2023/05/02 04:41:48;;;;;;;14.47;11.33;;;15.30;56.40;;;;;;4999703;28;20488;-85
2023/05/02 04:44:15;;;;;;;15.20;8.20;;;15.10;57.00;;;;;;5030984;28;20452;-84
2023/05/02 04:46:45;;;;;;;14.10;10.40;;;14.70;58.80;;;;;;5016395;28;20530;-85
2023/05/02 04:49:12;;;;;;;13.30;11.40;;;14.60;59.20;;;;;;5027334;28;20481;-86
2023/05/02 04:51:39;;;;;;;13.17;11.07;;;14.80;58.90;;;;;;5011352;28;20961;-85
2023/05/02 04:54:06;;;;;;;12.00;9.73;;;15.00;58.20;;;;;;5009249;28;20445;-82
2023/05/02 04:56:34;;;;;;;11.53;10.30;;;15.10;58.30;;;;;;5031981;28;20553;-84
2023/05/02 04:59:01;;;;;;;12.33;9.97;;;15.20;58.40;;;;;;5048319;28;20433;-83
2023/05/02 05:01:28;;;;;;;12.63;9.90;;;15.30;58.20;;;;;;5014082;28;20465;-85
2023/05/02 05:03:57;;;;;;;12.83;9.17;;;15.30;57.50;;;;;;5014085;28;20503;-84
2023/05/02 05:06:24;;;;;;;15.37;11.10;;;15.40;57.90;;;;;;5012287;28;20530;-84
2023/05/02 05:08:52;;;;;;;12.10;10.40;;;15.30;58.30;;;;;;5007773;28;20466;-85
2023/05/02 05:11:19;;;;;;;12.87;10.90;;;15.30;57.70;;;;;;5018735;28;20515;-84
2023/05/02 05:13:47;;;;;;;15.80;12.10;;;15.30;57.20;;;;;;5020759;28;20464;-83
2023/05/02 05:16:15;;;;;;;19.17;13.33;;;15.40;57.50;;;;;;5032780;28;20571;-84
2023/05/02 05:18:43;;;;;;;15.10;11.40;;;15.40;57.90;;;;;;5009361;28;20461;-83
2023/05/02 05:21:13;;;;;;;32.70;14.60;;;15.40;58.20;;;;;;5031308;28;20457;-85
2023/05/02 05:23:44;;;;;;;20.37;12.37;;;15.40;57.80;;;;;;5029198;28;20627;-85
2023/05/02 05:26:14;;;;;;;18.60;11.50;;;15.50;57.70;;;;;;5018517;28;20469;-84
2023/05/02 05:28:43;;;;;;;15.20;10.50;;;15.50;57.40;;;;;;5009320;28;20564;-85
2023/05/02 05:31:12;;;;;;;16.90;10.93;;;15.60;58.00;;;;;;5021835;28;21235;-84
2023/05/02 05:33:40;;;;;;;15.20;10.67;;;15.60;58.10;;;;;;5018243;28;20449;-85
2023/05/02 05:36:10;;;;;;;16.93;12.07;;;15.50;58.50;;;;;;5022795;28;20557;-84
2023/05/02 05:38:39;;;;;;;20.87;12.17;;;15.50;58.50;;;;;;5015274;28;20536;-85
2023/05/02 05:41:07;;;;;;;15.73;10.93;;;15.50;58.40;;;;;;5005214;28;20946;-84
2023/05/02 05:43:36;;;;;;;12.33;8.30;;;15.60;58.20;;;;;;5007523;28;20441;-84
2023/05/02 05:46:03;;;;;;;15.27;8.53;;;15.60;58.80;;;;;;4999384;28;20461;-84
2023/05/02 05:48:33;;;;;;;13.80;8.83;;;15.50;59.20;;;;;;5025011;28;20479;-84
2023/05/02 05:51:04;;;;;;;13.03;8.07;;;15.60;59.00;;;;;;5006902;28;20458;-84
2023/05/02 05:53:31;;;;;;;8.13;7.33;;;15.70;58.90;;;;;;5022753;28;20473;-85
2023/05/02 05:56:07;;;;;;;8.47;7.57;;;15.80;59.00;;;;;;5014414;28;21008;-85
2023/05/02 05:58:34;;;;;;;9.60;7.60;;;15.90;58.90;;;;;;5024305;28;20494;-83
2023/05/02 06:01:01;;;;;;;9.43;8.30;;;16.00;58.50;;;;;;5008866;28;20995;-85
2023/05/02 06:03:29;;;;;;;7.70;6.90;;;16.00;58.40;;;;;;5002086;28;21308;-84
2023/05/02 06:05:56;;;;;;;13.70;8.00;;;16.10;58.50;;;;;;5004013;28;20545;-84
2023/05/02 06:08:23;;;;;;;8.90;8.00;;;15.90;58.70;;;;;;5007456;28;20472;-85
2023/05/02 06:10:50;;;;;;;8.70;6.60;;;15.90;58.90;;;;;;5018069;28;20448;-84
2023/05/02 06:13:19;;;;;;;12.30;8.53;;;15.80;59.00;;;;;;5017154;28;20453;-83
2023/05/02 06:15:47;;;;;;;10.30;7.97;;;15.90;59.20;;;;;;5017174;28;20560;-84
2023/05/02 06:18:15;;;;;;;17.80;8.63;;;15.90;59.00;;;;;;5046793;28;20442;-85
2023/05/02 06:20:43;;;;;;;9.97;7.77;;;16.00;59.00;;;;;;5009765;28;20449;-84
2023/05/02 06:23:10;;;;;;;9.83;7.77;;;16.00;58.80;;;;;;4999136;28;20843;-84
2023/05/02 06:25:40;;;;;;;9.43;8.43;;;15.90;58.90;;;;;;5008366;28;21038;-84
2023/05/02 06:28:08;;;;;;;10.50;8.90;;;15.90;59.30;;;;;;5022546;28;20486;-84
2023/05/02 06:30:36;;;;;;;10.60;8.97;;;15.80;59.40;;;;;;5036225;28;20539;-83
2023/05/02 06:33:04;;;;;;;12.30;8.37;;;15.80;59.40;;;;;;5014558;28;20941;-84
2023/05/02 06:35:31;;;;;;;9.63;8.30;;;15.70;59.80;;;;;;5046846;28;20460;-83
2023/05/02 06:37:58;;;;;;;11.60;8.93;;;15.90;59.90;;;;;;4995523;28;20449;-85
2023/05/02 06:40:25;;;;;;;10.93;9.03;;;16.20;59.60;;;;;;4998220;28;20452;-87
2023/05/02 06:42:52;;;;;;;13.23;10.20;;;16.40;59.20;;;;;;5005017;28;20453;-85
2023/05/02 06:45:20;;;;;;;12.10;9.93;;;16.60;58.80;;;;;;5024352;28;21099;-86
2023/05/02 06:47:48;;;;;;;15.73;11.80;;;16.40;58.60;;;;;;5012711;28;20446;-85
2023/05/02 06:50:16;;;;;;;15.27;11.30;;;16.40;59.50;;;;;;5011574;28;20453;-85
2023/05/02 06:52:43;;;;;;;16.80;12.00;;;16.70;59.20;;;;;;5005968;28;21002;-85
2023/05/02 06:55:10;;;;;;;20.30;13.20;;;16.80;58.40;;;;;;5023453;28;20814;-85
2023/05/02 06:57:37;;;;;;;21.97;15.50;;;16.90;57.80;;;;;;5018400;28;20552;-85
2023/05/02 07:00:04;;;;;;;22.43;15.50;;;17.00;57.90;;;;;;5022272;28;21441;-84
2023/05/02 07:02:31;;;;;;;22.37;16.40;;;17.10;57.80;;;;;;5012350;28;21195;-83
2023/05/02 07:05:00;;;;;;;19.10;14.50;;;17.10;57.20;;;;;;5028952;28;20553;-85
2023/05/02 07:07:27;;;;;;;21.40;16.87;;;17.20;57.70;;;;;;5028249;28;20477;-84
2023/05/02 07:09:54;;;;;;;23.37;15.17;;;17.30;56.60;;;;;;5023214;28;20475;-84
2023/05/02 07:12:21;;;;;;;22.70;15.80;;;17.40;56.10;;;;;;5014178;28;20438;-84
2023/05/02 07:14:48;;;;;;;19.10;15.27;;;17.20;55.40;;;;;;5029308;28;21118;-85
2023/05/02 07:17:15;;;;;;;22.90;15.77;;;17.20;56.50;;;;;;5016365;28;20475;-85
2023/05/02 07:19:42;;;;;;;22.67;14.67;;;17.40;55.30;;;;;;5020603;28;20445;-84
2023/05/02 07:22:10;;;;;;;21.70;15.00;;;17.60;54.80;;;;;;5016931;28;20879;-85
2023/05/02 07:24:40;;;;;;;18.13;13.63;;;17.50;55.00;;;;;;5026224;28;20539;-83
2023/05/02 07:27:08;;;;;;;19.80;13.63;;;17.60;54.60;;;;;;5011363;28;20471;-85
2023/05/02 07:29:36;;;;;;;16.63;12.77;;;17.80;53.80;;;;;;5018780;28;20468;-85
2023/05/02 07:32:03;;;;;;;20.20;15.23;;;17.90;53.40;;;;;;5005433;28;20442;-85
2023/05/02 07:34:31;;;;;;;19.30;14.47;;;17.90;52.70;;;;;;5014131;28;20445;-84
2023/05/02 07:36:58;;;;;;;18.33;14.00;;;17.90;53.30;;;;;;5009893;28;21079;-84
2023/05/02 07:39:26;;;;;;;20.03;12.80;;;17.90;53.30;;;;;;5016217;28;20455;-84
2023/05/02 07:41:54;;;;;;;16.93;13.10;;;17.90;53.30;;;;;;5005089;28;21009;-85
2023/05/02 07:44:21;;;;;;;15.20;11.73;;;18.00;53.60;;;;;;5034165;28;20444;-84
2023/05/02 07:46:48;;;;;;;17.10;11.77;;;18.30;53.00;;;;;;5009191;28;21074;-84
2023/05/02 07:49:15;;;;;;;21.47;11.70;;;18.40;51.70;;;;;;5021434;28;20497;-84
2023/05/02 07:51:44;;;;;;;17.03;12.53;;;18.20;52.40;;;;;;5017641;28;20457;-84
2023/05/02 07:54:18;;;;;;;17.33;12.37;;;18.40;52.50;;;;;;5016390;28;20437;-84
2023/05/02 07:56:47;;;;;;;14.23;10.97;;;18.50;51.60;;;;;;5000374;28;20475;-86
2023/05/02 07:59:14;;;;;;;15.50;10.63;;;18.60;50.70;;;;;;5012588;28;20472;-85
2023/05/02 08:01:41;;;;;;;13.70;11.37;;;18.60;51.10;;;;;;5046451;28;20460;-84
2023/05/02 08:04:10;;;;;;;14.57;11.00;;;18.80;51.90;;;;;;5017909;28;20467;-84
2023/05/02 08:06:37;;;;;;;15.47;11.13;;;19.00;50.60;;;;;;5036871;28;20465;-84
2023/05/02 08:09:04;;;;;;;14.10;10.67;;;19.20;50.60;;;;;;4999045;28;20475;-85
2023/05/02 08:11:31;;;;;;;14.50;11.23;;;19.40;50.20;;;;;;5016343;28;20445;-84
2023/05/02 08:13:59;;;;;;;14.57;10.53;;;19.60;49.80;;;;;;5012834;28;20457;-85
2023/05/02 08:16:27;;;;;;;14.73;11.03;;;19.50;48.90;;;;;;5024638;28;20965;-85
2023/05/02 08:18:54;;;;;;;15.20;9.67;;;19.40;49.60;;;;;;5011897;28;20437;-83
2023/05/02 08:21:21;;;;;;;14.13;10.87;;;19.40;50.20;;;;;;5029925;28;20533;-86
2023/05/02 08:23:47;;;;;;;12.43;10.53;;;19.40;49.30;;;;;;5004597;28;20455;-85
2023/05/02 08:26:17;;;;;;;13.87;10.93;;;19.40;49.80;;;;;;5013023;28;20731;-84
2023/05/02 08:28:44;;;;;;;11.80;10.00;;;19.40;49.60;;;;;;5022427;28;20483;-84
2023/05/02 08:31:13;;;;;;;14.70;9.77;;;19.50;48.90;;;;;;5016044;28;20510;-84
2023/05/02 08:33:40;;;;;;;13.00;10.13;;;19.40;48.40;;;;;;5007940;28;20454;-84
2023/05/02 08:36:11;;;;;;;13.67;10.60;;;19.20;49.20;;;;;;5051882;28;21059;-84
2023/05/02 08:38:38;;;;;;;15.97;10.40;;;19.30;48.50;;;;;;5034209;28;20445;-85
2023/05/02 08:41:10;;;;;;;14.27;10.67;;;19.40;48.60;;;;;;5027360;28;21250;-84
2023/05/02 08:43:38;;;;;;;14.43;10.00;;;19.50;48.30;;;;;;5019962;28;20488;-83
2023/05/02 08:46:07;;;;;;;12.33;10.50;;;19.60;48.50;;;;;;5022370;28;20541;-83
2023/05/02 08:48:38;;;;;;;12.37;9.40;;;19.40;48.30;;;;;;5025609;28;20466;-85
2023/05/02 08:51:11;;;;;;;12.37;8.87;;;19.30;48.70;;;;;;5021848;28;21446;-85
2023/05/02 08:53:39;;;;;;;11.17;9.60;;;19.60;48.30;;;;;;5043690;28;20476;-85
2023/05/02 08:56:07;;;;;;;10.77;9.27;;;19.90;47.70;;;;;;5018767;28;21074;-86
2023/05/02 08:58:35;;;;;;;11.63;9.20;;;20.00;46.80;;;;;;5029223;28;20559;-84
2023/05/02 09:01:09;;;;;;;11.70;9.93;;;20.10;46.90;;;;;;5033148;28;20461;-84
2023/05/02 09:03:37;;;;;;;10.83;8.50;;;20.10;46.20;;;;;;5031772;28;21104;-84
2023/05/02 09:06:09;;;;;;;11.47;8.00;;;20.10;46.60;;;;;;5009502;28;20556;-85
2023/05/02 09:08:37;;;;;;;12.20;9.03;;;20.20;46.90;;;;;;5004679;28;20441;-85
2023/05/02 09:11:04;;;;;;;18.27;10.37;;;20.40;47.10;;;;;;5024483;28;20521;-84
2023/05/02 09:13:33;;;;;;;21.53;9.20;;;20.60;46.50;;;;;;5015612;28;20485;-85
2023/05/02 09:16:02;;;;;;;13.27;9.80;;;20.60;45.70;;;;;;5031124;28;20830;-85
2023/05/02 09:18:31;;;;;;;12.30;9.70;;;20.20;45.40;;;;;;5025495;28;20512;-85
2023/05/02 09:21:01;;;;;;;10.00;7.73;;;20.20;46.70;;;;;;5024673;28;20438;-84
2023/05/02 09:23:39;;;;;;;10.83;9.00;;;20.20;46.20;;;;;;5017528;28;20527;-84
2023/05/02 09:26:11;;;;;;;12.90;7.97;;;20.20;45.80;;;;;;5009411;28;20464;-85
2023/05/02 09:28:40;;;;;;;10.43;8.83;;;20.20;45.30;;;;;;5033406;28;20459;-85
2023/05/02 09:31:09;;;;;;;16.30;7.30;;;19.80;44.60;;;;;;4998470;28;20464;-85
2023/05/02 09:33:36;;;;;;;11.33;8.10;;;19.90;46.10;;;;;;5017316;28;20837;-85
2023/05/02 09:36:06;;;;;;;9.23;8.17;;;20.00;46.50;;;;;;5025459;28;20479;-86
2023/05/02 09:38:33;;;;;;;10.30;8.20;;;20.10;46.40;;;;;;5020513;28;20527;-85
2023/05/02 09:41:02;;;;;;;8.03;7.10;;;20.00;45.90;;;;;;5003876;28;20727;-85
2023/05/02 09:43:30;;;;;;;7.37;6.63;;;19.80;45.30;;;;;;5006079;28;20441;-85
2023/05/02 09:45:59;;;;;;;10.07;6.63;;;19.60;46.00;;;;;;5005281;28;20464;-83
2023/05/02 09:48:27;;;;;;;10.07;6.60;;;19.60;46.00;;;;;;4999760;28;20445;-86
2023/05/02 09:50:54;;;;;;;10.60;5.63;;;19.70;47.10;;;;;;5027362;28;20516;-85
2023/05/02 09:53:25;;;;;;;5.50;4.57;;;19.70;44.80;;;;;;5033279;28;20539;-85
2023/05/02 09:56:03;;;;;;;6.30;4.87;;;19.50;42.70;;;;;;5004053;28;20499;-85
2023/05/02 09:58:30;;;;;;;6.23;5.63;;;19.50;44.00;;;;;;5023781;28;20452;-84
2023/05/02 10:00:58;;;;;;;7.17;5.43;;;19.60;44.10;;;;;;5034707;28;20445;-85
2023/05/02 10:03:27;;;;;;;11.57;5.80;;;19.40;45.50;;;;;;5024834;28;20531;-85
2023/05/02 10:05:55;;;;;;;9.13;6.63;;;19.60;46.10;;;;;;5025111;28;21009;-85
2023/05/02 10:08:26;;;;;;;9.53;5.37;;;19.70;46.20;;;;;;5049623;28;20441;-84
2023/05/02 10:10:54;;;;;;;9.37;5.30;;;19.90;45.50;;;;;;5035204;28;20986;-85
2023/05/02 10:13:25;;;;;;;6.70;6.00;;;19.90;44.90;;;;;;5049893;28;20510;-85
2023/05/02 10:16:00;;;;;;;7.90;6.10;;;20.00;44.30;;;;;;5012579;28;20479;-84
2023/05/02 10:18:33;;;;;;;11.03;6.30;;;20.00;45.30;;;;;;5024912;28;20540;-84
2023/05/02 10:21:05;;;;;;;9.93;7.77;;;20.10;46.50;;;;;;5004016;28;20452;-85
2023/05/02 10:23:34;;;;;;;10.07;7.60;;;20.00;46.30;;;;;;5009510;28;20492;-86
2023/05/02 10:26:02;;;;;;;10.60;7.30;;;20.00;46.30;;;;;;5022022;28;20677;-85
2023/05/02 10:28:30;;;;;;;9.73;7.37;;;20.40;46.90;;;;;;5023666;28;20560;-85
2023/05/02 10:30:59;;;;;;;10.20;7.37;;;20.70;45.80;;;;;;5034204;28;20476;-84
2023/05/02 10:33:28;;;;;;;11.27;7.87;;;21.00;45.60;;;;;;5010734;28;20528;-84
2023/05/02 10:35:55;;;;;;;9.50;7.40;;;21.30;44.40;;;;;;5033984;28;20843;-84
2023/05/02 10:38:23;;;;;;;10.43;7.43;;;21.50;43.60;;;;;;5029587;28;21059;-83
2023/05/02 10:40:55;;;;;;;9.53;6.70;;;21.70;43.90;;;;;;5042187;28;20808;-85
2023/05/02 10:43:25;;;;;;;9.90;7.67;;;21.70;43.50;;;;;;5030701;28;20500;-84
2023/05/02 10:45:53;;;;;;;12.03;8.53;;;22.00;42.50;;;;;;5023718;28;20607;-84
2023/05/02 10:48:23;;;;;;;9.30;7.10;;;22.30;41.60;;;;;;5013701;28;20460;-84
2023/05/02 10:50:52;;;;;;;11.00;6.90;;;22.50;41.50;;;;;;5022471;28;20497;-84
2023/05/02 10:53:24;;;;;;;6.87;5.83;;;22.10;41.30;;;;;;5015736;28;20480;-85
2023/05/02 10:56:25;;;;;;;6.90;5.97;;;21.60;41.40;;;;;;5015696;28;20472;-84
2023/05/02 10:58:53;;;;;;;10.97;6.37;;;21.40;42.20;;;;;;5023501;28;21323;-86
2023/05/02 11:01:38;;;;;;;6.73;5.37;;;21.20;42.40;;;;;;5025634;28;20451;-84
2023/05/02 11:04:11;;;;;;;7.40;5.30;;;21.10;43.40;;;;;;5025164;28;20438;-84
2023/05/02 11:07:12;;;;;;;8.23;6.50;;;21.40;42.90;;;;;;5015902;28;20932;-85
2023/05/02 11:09:40;;;;;;;9.80;5.87;;;21.50;41.20;;;;;;5025599;28;20460;-86
2023/05/02 11:12:07;;;;;;;6.80;5.83;;;21.60;41.60;;;;;;5016340;28;20441;-84
2023/05/02 11:14:49;;;;;;;6.17;4.83;;;22.00;39.70;;;;;;5048811;28;20556;-84
2023/05/02 11:17:17;;;;;;;5.20;4.60;;;22.40;40.00;;;;;;5013070;28;20544;-84
2023/05/02 11:20:25;;;;;;;8.73;5.10;;;22.60;39.90;;;;;;5016914;28;20452;-83
2023/05/02 11:22:52;;;;;;;6.00;4.13;;;22.60;39.30;;;;;;5035006;28;20535;-84
2023/05/02 11:25:30;;;;;;;6.77;4.10;;;22.30;40.40;;;;;;5003552;28;21170;-83
2023/05/02 11:27:57;;;;;;;6.70;4.50;;;22.20;40.20;;;;;;5033124;28;21146;-83
2023/05/02 11:30:40;;;;;;;5.67;4.27;;;22.50;41.00;;;;;;5029050;28;20491;-84
2023/05/02 11:33:18;;;;;;;5.97;4.57;;;22.50;38.70;;;;;;5009202;28;20440;-83
2023/05/02 11:35:47;;;;;;;3.97;3.57;;;22.90;39.20;;;;;;5025233;28;20525;-84
2023/05/02 11:38:21;;;;;;;5.10;4.10;;;23.00;38.00;;;;;;5015289;28;20467;-84
2023/05/02 11:40:59;;;;;;;6.03;3.77;;;23.20;39.70;;;;;;5022581;28;20469;-85
2023/05/02 11:43:28;;;;;;;6.73;4.50;;;23.20;35.50;;;;;;4995972;28;20461;-84
2023/05/02 11:45:58;;;;;;;4.40;4.00;;;22.90;36.10;;;;;;5018025;28;20595;-84
2023/05/02 11:48:27;;;;;;;4.37;3.97;;;23.00;37.40;;;;;;5021841;28;20851;-85
2023/05/02 11:50:56;;;;;;;4.80;3.70;;;23.30;36.70;;;;;;5049417;28;20953;-83
2023/05/02 11:53:25;;;;;;;4.20;3.80;;;23.90;35.50;;;;;;5034307;28;20449;-85
2023/05/02 11:55:53;;;;;;;3.77;3.47;;;23.90;34.90;;;;;;4999700;28;20469;-84
2023/05/02 11:58:22;;;;;;;4.80;3.57;;;23.50;34.90;;;;;;5002530;28;20448;-86
2023/05/02 12:00:49;;;;;;;4.37;3.30;;;23.60;36.10;;;;;;5014640;28;20534;-85
2023/05/02 12:03:36;;;;;;;5.10;3.33;;;23.40;37.30;;;;;;5020603;28;20457;-83
2023/05/02 12:06:10;;;;;;;4.10;3.30;;;23.10;38.00;;;;;;5034534;28;20503;-84
2023/05/02 12:08:38;;;;;;;3.27;2.97;;;23.00;37.20;;;;;;5015904;28;20453;-85
2023/05/02 12:11:05;;;;;;;3.63;3.10;;;23.00;36.80;;;;;;5011447;28;20467;-85
2023/05/02 12:13:32;;;;;;;3.30;3.00;;;22.70;36.00;;;;;;5039931;28;20913;-84
2023/05/02 12:16:00;;;;;;;6.20;3.87;;;22.70;37.30;;;;;;5029719;28;20623;-85
2023/05/02 12:18:27;;;;;;;4.17;3.60;;;22.90;37.80;;;;;;5013125;28;20477;-85
2023/05/02 12:20:56;;;;;;;11.17;7.47;;;23.10;37.30;;;;;;5025825;28;20455;-86
2023/05/02 12:23:26;;;;;;;12.47;6.23;;;23.10;37.90;;;;;;5019782;28;20531;-85
2023/05/02 12:25:53;;;;;;;4.00;3.60;;;22.90;37.80;;;;;;5037619;28;20473;-85
2023/05/02 12:28:22;;;;;;;3.83;3.17;;;22.90;37.70;;;;;;5008537;28;20544;-86
2023/05/02 12:30:50;;;;;;;4.27;3.20;;;23.30;37.50;;;;;;5023661;28;20475;-85
2023/05/02 12:33:18;;;;;;;3.40;3.10;;;23.70;36.90;;;;;;5021315;28;20439;-84
2023/05/02 12:35:46;;;;;;;4.13;3.60;;;23.70;35.80;;;;;;5028263;28;20564;-85
2023/05/02 12:38:17;;;;;;;6.70;4.67;;;23.90;34.80;;;;;;5021463;28;20516;-85
2023/05/02 12:40:49;;;;;;;3.63;3.33;;;23.50;34.90;;;;;;5008553;28;20979;-85
2023/05/02 12:43:17;;;;;;;2.90;2.60;;;23.70;34.90;;;;;;5048133;28;20458;-86
2023/05/02 12:45:44;;;;;;;4.97;3.40;;;23.70;33.90;;;;;;5049955;28;20492;-84
2023/05/02 12:48:22;;;;;;;4.20;3.13;;;24.00;35.70;;;;;;5022559;28;20461;-85
2023/05/02 12:50:49;;;;;;;3.90;3.50;;;24.40;34.90;;;;;;5014872;28;20535;-84